Centralia, MO

12:18 PM CST on February 09, 2016 (GMT -0600)
Rolling Hills | | Change Station
CLOSE
Current Station
Personal Weather Station
Location: Centralia, MO
Elevation: 863 ft
Nearby Weather Stations

Elev 863 ft 39.16 °N, 92.19 °W | Updated 32 seconds ago

Mostly Cloudy
Mostly Cloudy
24.6 °F
Feels Like 20 °F
N
4.0
Wind Variable Wind from WNW
Gusts 15.0 mph

Today
High -- | Low -- °F
--% Chance of Precip.
Yesterday
High -- | Low -- °F
Precip. -- in
Pressure 30.12 in
Visibility 10.0 miles
Clouds Mostly Cloudy 3100 ft
Windchill 20 °F
Dew Point 14 °F
Humidity 65%
Rainfall 0.00 in
Snow Depth Not available.
7:07 AM 5:38 PM
New Moon, 2% visible
METAR KCOU 091754Z 31016G23KT 10SM BKN031 M04/M13 A3008 RMK AO2 PK WND 31026/1735 SLP197 60000 T10441128 11044 21083 51013
Pressure 30.12 in
Visibility 10.0 miles
Clouds Mostly Cloudy 3100 ft
Windchill 20 °F
Dew Point 14 °F
Humidity 65%
Rainfall 0.00 in
Snow Depth Not available.
7:07 AM 5:38 PM
New Moon, 2% visible
METAR KCOU 091754Z 31016G23KT 10SM BKN031 M04/M13 A3008 RMK AO2 PK WND 31026/1735 SLP197 60000 T10441128 11044 21083 51013

10-Day Weather Forecast

Almanac

Astronomy

Feb. 09, 2016 Rise Set
Actual Time
Civil Twilight
Nautical Twilight
Astronomical Twilight
Moon
Length of Visible Light
Length of Day
Tomorrow will be .
, % of the Moon is Illuminated

Today's Extremes

State Highs State Lows

Community

WunderPhotos

Upload Photos

1,891,651 photos uploaded!

WunderBlog® & News

Nearby

Air Quality

  Air Quality AQ Index Pollutant
Not available.

Snow Depth

Station Depth Elevation

Earthquake Activity

City Distance Mag. Time & Date
Minimum magnitude displayed is 2.5.

Coastal Water Temperatures

Place Temperature

Stations

Nearby Weather Stations

Station Location Temp. Windchill Dew Point Humidity Wind Precip. Elev Updated Type
                   

Watches & Warnings

There are currently no watches in effect.